EDDM

Munich International Airport

Munich, Germany
METAR EDDM 181620Z 10003KT 9999 FEW026 BKN040 00/M03 Q1024 R88/290095 NOSIG
Observed Flight Rules
Dec-18 @ 16:20 UTC (23 minutes ago) Visual Flight Rules
Wind Visibility Clouds
100° at 3 knots 10,000+ meters
  • Few at 2,600' AGL
  • Broken at 4,000' AGL
Temperatures Readings
Current 0°C / 32°F
Dewpoint -3°C / 27°F
Humidity 80%
Altimeter 30.24" Hg
Pressure 1024 hPa
Elevation 447
METAR EDDM 181620Z 10003KT 9999 FEW026 BKN040 00/M03 Q1024 R88/290095 NOSIG
Observed Flight Rules
Dec-18 @ 16:20 UTC
(23 minutes ago)
VFR
Wind Visibility
100° at 3 knots 10,000+ meters
Clouds
  • Few at 2,600' AGL
  • Broken at 4,000' AGL
Temperature Dewpoint
0°C / 32°F -3°C / 27°F
Humidity Altimeter Pressure
80% 30.24" Hg 1024 hPa